This is the latest recevied weather packets stored in our database for station/object SP1BMW-13. If no packets are shown the sender has not sent any weather packets the latest 10 day(s).
| Time | Temp. | Humidity | Pressure | Rain* | Wind** | Luminosity | Snow |
|---|---|---|---|---|---|---|---|
| 1787848396 | 25.56° C | 39% | 1017.4 hPa | 0 mm | 0.45 m/s, 57° | 101 W/m² | - |
| 1787848336 | 25.56° C | 38% | 1017.6 hPa | 0 mm | 0.45 m/s, 47° | 110 W/m² | - |
| 1787848276 | 25.56° C | 37% | 1017.4 hPa | 0 mm | 0.45 m/s, 87° | 111 W/m² | - |
| 1787848216 | 25.56° C | 37% | 1017.7 hPa | 0 mm | 0 m/s | 113 W/m² | - |
| 1787848156 | 25.56° C | 37% | 1017.8 hPa | 0 mm | 0.89 m/s, 81° | 115 W/m² | - |
| 1787848096 | 25.56° C | 37% | 1017.5 hPa | 0 mm | 0.45 m/s, 357° | 117 W/m² | - |
| 1787848036 | 25.56° C | 37% | 1017.6 hPa | 0 mm | 2.24 m/s, 64° | 119 W/m² | - |
| 1787847976 | 25.56° C | 38% | 1017.7 hPa | 0 mm | 0.45 m/s, 30° | 120 W/m² | - |
| 1787847916 | 25.56° C | 37% | 1017.5 hPa | 0 mm | 1.34 m/s, 36° | 121 W/m² | - |
| 1787847856 | 25.56° C | 37% | 1017.5 hPa | 0 mm | 0.45 m/s, 164° | 121 W/m² | - |
| 1787847796 | 25.56° C | 38% | 1017.6 hPa | 0 mm | 0.89 m/s, 114° | 123 W/m² | - |
| 1787847736 | 25.56° C | 37% | 1017.8 hPa | 0 mm | 1.79 m/s, 26° | 125 W/m² | - |
| 1787847676 | 25.56° C | 37% | 1017.6 hPa | 0 mm | 0.89 m/s, 103° | 129 W/m² | - |
| 1787847616 | 25.56° C | 38% | 1017.7 hPa | 0 mm | 0.89 m/s, 53° | 127 W/m² | - |
| 1787847556 | 25.56° C | 38% | 1017.6 hPa | 0 mm | 1.34 m/s, 33° | 130 W/m² | - |
| 1787847496 | 25.56° C | 38% | 1017.6 hPa | 0 mm | 0.89 m/s, 89° | 130 W/m² | - |
| 1787847436 | 25.56° C | 38% | 1017.6 hPa | 0 mm | 0.89 m/s, 52° | 137 W/m² | - |
| 1787847376 | 25.56° C | 38% | 1017.7 hPa | 0 mm | 1.79 m/s, 41° | 141 W/m² | - |
| 1787847316 | 25.56° C | 38% | 1017.8 hPa | 0 mm | 0.89 m/s, 337° | 143 W/m² | - |
| 1787847256 | 25.56° C | 37% | 1017.7 hPa | 0 mm | 0.89 m/s, 36° | 144 W/m² | - |
| 1787847196 | 25.56° C | 37% | 1017.6 hPa | 0 mm | 1.34 m/s, 85° | 143 W/m² | - |
| 1787847136 | 25.56° C | 38% | 1017.6 hPa | 0 mm | 1.34 m/s, 76° | 143 W/m² | - |
| 1787847077 | 25.56° C | 37% | 1017.8 hPa | 0 mm | 1.79 m/s, 28° | 144 W/m² | - |
| 1787847016 | 25.56° C | 38% | 1017.6 hPa | 0 mm | 0.45 m/s, 32° | 146 W/m² | - |
| 1787846956 | 25.56° C | 38% | 1017.9 hPa | 0 mm | 0.45 m/s, 28° | 145 W/m² | - |
* Rain latest hour (hover to see other rain measurements)
** Current wind speed in m/s (hover to see current wind gust speed)